sensor_id;sensor_type;location;lat;lon;timestamp;P1;durP1;ratioP1;P2;durP2;ratioP2
11665;SDS011;5889;51.350;6.708;2022-08-19T00:00:46;13.52;;;10.65;;
11665;SDS011;5889;51.350;6.708;2022-08-19T00:03:14;13.57;;;10.40;;
11665;SDS011;5889;51.350;6.708;2022-08-19T00:05:41;12.85;;;10.90;;
11665;SDS011;5889;51.350;6.708;2022-08-19T00:08:09;16.48;;;11.45;;
11665;SDS011;5889;51.350;6.708;2022-08-19T00:10:36;14.65;;;12.98;;
11665;SDS011;5889;51.350;6.708;2022-08-19T00:13:03;18.85;;;11.75;;
11665;SDS011;5889;51.350;6.708;2022-08-19T00:15:30;17.20;;;11.30;;
11665;SDS011;5889;51.350;6.708;2022-08-19T00:17:57;13.10;;;11.70;;
11665;SDS011;5889;51.350;6.708;2022-08-19T00:20:24;14.18;;;11.80;;
11665;SDS011;5889;51.350;6.708;2022-08-19T00:22:51;16.00;;;12.10;;
11665;SDS011;5889;51.350;6.708;2022-08-19T00:25:20;15.57;;;11.25;;
11665;SDS011;5889;51.350;6.708;2022-08-19T00:27:48;14.35;;;10.52;;
11665;SDS011;5889;51.350;6.708;2022-08-19T00:30:15;13.15;;;10.30;;
11665;SDS011;5889;51.350;6.708;2022-08-19T00:32:42;14.02;;;10.30;;
11665;SDS011;5889;51.350;6.708;2022-08-19T00:35:09;13.88;;;11.13;;
11665;SDS011;5889;51.350;6.708;2022-08-19T00:37:36;12.27;;;10.98;;
11665;SDS011;5889;51.350;6.708;2022-08-19T00:40:04;15.00;;;11.43;;
11665;SDS011;5889;51.350;6.708;2022-08-19T00:42:33;14.65;;;11.35;;
11665;SDS011;5889;51.350;6.708;2022-08-19T00:45:00;14.00;;;12.02;;
11665;SDS011;5889;51.350;6.708;2022-08-19T00:47:27;15.13;;;12.25;;
11665;SDS011;5889;51.350;6.708;2022-08-19T00:49:55;13.63;;;12.23;;
11665;SDS011;5889;51.350;6.708;2022-08-19T00:52:26;15.13;;;12.88;;
11665;SDS011;5889;51.350;6.708;2022-08-19T00:54:55;14.27;;;12.38;;
11665;SDS011;5889;51.350;6.708;2022-08-19T00:57:25;16.30;;;12.43;;
11665;SDS011;5889;51.350;6.708;2022-08-19T00:59:58;14.40;;;11.93;;
11665;SDS011;5889;51.350;6.708;2022-08-19T01:02:27;14.55;;;11.43;;
11665;SDS011;5889;51.350;6.708;2022-08-19T01:04:55;15.88;;;12.90;;
11665;SDS011;5889;51.350;6.708;2022-08-19T01:07:22;14.20;;;12.48;;
11665;SDS011;5889;51.350;6.708;2022-08-19T01:09:49;16.05;;;12.40;;
11665;SDS011;5889;51.350;6.708;2022-08-19T01:12:17;14.40;;;12.10;;
11665;SDS011;5889;51.350;6.708;2022-08-19T01:14:45;13.15;;;11.65;;
11665;SDS011;5889;51.350;6.708;2022-08-19T01:17:14;15.48;;;11.63;;
11665;SDS011;5889;51.350;6.708;2022-08-19T01:19:43;14.68;;;11.32;;
11665;SDS011;5889;51.350;6.708;2022-08-19T01:22:32;12.48;;;10.95;;
11665;SDS011;5889;51.350;6.708;2022-08-19T01:25:02;14.40;;;10.70;;
11665;SDS011;5889;51.350;6.708;2022-08-19T01:27:36;12.38;;;10.98;;
11665;SDS011;5889;51.350;6.708;2022-08-19T01:30:04;12.30;;;10.98;;
11665;SDS011;5889;51.350;6.708;2022-08-19T01:32:32;14.68;;;11.05;;
11665;SDS011;5889;51.350;6.708;2022-08-19T01:34:59;14.35;;;11.48;;
11665;SDS011;5889;51.350;6.708;2022-08-19T01:37:27;12.63;;;11.23;;
11665;SDS011;5889;51.350;6.708;2022-08-19T01:39:56;15.18;;;12.30;;
11665;SDS011;5889;51.350;6.708;2022-08-19T01:42:23;14.77;;;11.63;;
11665;SDS011;5889;51.350;6.708;2022-08-19T01:44:50;15.18;;;11.55;;
11665;SDS011;5889;51.350;6.708;2022-08-19T01:47:17;13.85;;;11.82;;
11665;SDS011;5889;51.350;6.708;2022-08-19T01:49:44;13.30;;;11.88;;
11665;SDS011;5889;51.350;6.708;2022-08-19T01:52:11;13.60;;;12.18;;
11665;SDS011;5889;51.350;6.708;2022-08-19T01:54:38;15.77;;;12.00;;
11665;SDS011;5889;51.350;6.708;2022-08-19T01:57:07;13.38;;;11.70;;
11665;SDS011;5889;51.350;6.708;2022-08-19T01:59:36;14.23;;;11.80;;
11665;SDS011;5889;51.350;6.708;2022-08-19T02:02:04;13.23;;;11.82;;
11665;SDS011;5889;51.350;6.708;2022-08-19T02:04:32;14.48;;;12.32;;
11665;SDS011;5889;51.350;6.708;2022-08-19T02:06:59;15.82;;;12.52;;
11665;SDS011;5889;51.350;6.708;2022-08-19T02:09:27;15.25;;;12.32;;
11665;SDS011;5889;51.350;6.708;2022-08-19T02:11:54;15.68;;;12.45;;
11665;SDS011;5889;51.350;6.708;2022-08-19T02:14:22;13.57;;;12.00;;
11665;SDS011;5889;51.350;6.708;2022-08-19T02:16:49;14.63;;;12.70;;
11665;SDS011;5889;51.350;6.708;2022-08-19T02:19:16;19.02;;;12.70;;
11665;SDS011;5889;51.350;6.708;2022-08-19T02:21:43;14.93;;;11.90;;
11665;SDS011;5889;51.350;6.708;2022-08-19T02:24:10;15.63;;;11.90;;
11665;SDS011;5889;51.350;6.708;2022-08-19T02:26:37;15.80;;;13.30;;
11665;SDS011;5889;51.350;6.708;2022-08-19T02:29:04;16.55;;;13.73;;
11665;SDS011;5889;51.350;6.708;2022-08-19T02:31:32;15.55;;;13.73;;
11665;SDS011;5889;51.350;6.708;2022-08-19T02:33:59;19.65;;;14.27;;
11665;SDS011;5889;51.350;6.708;2022-08-19T02:36:26;17.58;;;14.38;;
11665;SDS011;5889;51.350;6.708;2022-08-19T02:38:53;15.15;;;13.18;;
11665;SDS011;5889;51.350;6.708;2022-08-19T02:41:19;16.52;;;13.18;;
11665;SDS011;5889;51.350;6.708;2022-08-19T02:43:48;18.88;;;13.75;;
11665;SDS011;5889;51.350;6.708;2022-08-19T02:46:16;15.85;;;14.15;;
11665;SDS011;5889;51.350;6.708;2022-08-19T02:48:47;19.30;;;16.13;;
11665;SDS011;5889;51.350;6.708;2022-08-19T02:51:15;23.25;;;17.42;;
11665;SDS011;5889;51.350;6.708;2022-08-19T02:53:43;18.50;;;16.13;;
11665;SDS011;5889;51.350;6.708;2022-08-19T02:56:10;23.63;;;19.08;;
11665;SDS011;5889;51.350;6.708;2022-08-19T02:58:37;23.00;;;18.75;;
11665;SDS011;5889;51.350;6.708;2022-08-19T03:01:04;24.65;;;20.55;;
11665;SDS011;5889;51.350;6.708;2022-08-19T03:03:31;22.33;;;19.35;;
11665;SDS011;5889;51.350;6.708;2022-08-19T03:06:07;20.95;;;18.63;;
11665;SDS011;5889;51.350;6.708;2022-08-19T03:08:35;23.10;;;19.45;;
11665;SDS011;5889;51.350;6.708;2022-08-19T03:11:03;24.35;;;21.23;;
11665;SDS011;5889;51.350;6.708;2022-08-19T03:13:30;27.38;;;22.40;;
11665;SDS011;5889;51.350;6.708;2022-08-19T03:15:58;23.83;;;17.85;;
11665;SDS011;5889;51.350;6.708;2022-08-19T03:18:25;21.75;;;16.63;;
11665;SDS011;5889;51.350;6.708;2022-08-19T03:20:52;23.23;;;18.42;;
11665;SDS011;5889;51.350;6.708;2022-08-19T03:23:21;27.77;;;19.30;;
11665;SDS011;5889;51.350;6.708;2022-08-19T03:25:50;28.35;;;21.95;;
11665;SDS011;5889;51.350;6.708;2022-08-19T03:28:18;29.92;;;22.83;;
11665;SDS011;5889;51.350;6.708;2022-08-19T03:30:54;27.80;;;22.45;;
11665;SDS011;5889;51.350;6.708;2022-08-19T03:33:23;30.52;;;23.08;;
11665;SDS011;5889;51.350;6.708;2022-08-19T03:36:00;30.80;;;24.33;;
11665;SDS011;5889;51.350;6.708;2022-08-19T03:38:31;28.88;;;23.25;;
11665;SDS011;5889;51.350;6.708;2022-08-19T03:41:01;34.33;;;25.75;;
11665;SDS011;5889;51.350;6.708;2022-08-19T03:43:31;32.65;;;24.67;;
11665;SDS011;5889;51.350;6.708;2022-08-19T03:46:02;32.33;;;24.85;;
11665;SDS011;5889;51.350;6.708;2022-08-19T03:48:31;29.08;;;24.17;;
11665;SDS011;5889;51.350;6.708;2022-08-19T03:50:58;33.50;;;25.55;;
11665;SDS011;5889;51.350;6.708;2022-08-19T03:53:26;34.40;;;26.08;;
11665;SDS011;5889;51.350;6.708;2022-08-19T03:55:55;34.78;;;26.80;;
11665;SDS011;5889;51.350;6.708;2022-08-19T03:58:24;36.28;;;27.80;;
11665;SDS011;5889;51.350;6.708;2022-08-19T04:00:52;34.75;;;25.88;;
11665;SDS011;5889;51.350;6.708;2022-08-19T04:03:19;35.67;;;25.05;;
11665;SDS011;5889;51.350;6.708;2022-08-19T04:05:46;31.85;;;24.02;;
11665;SDS011;5889;51.350;6.708;2022-08-19T04:08:13;37.70;;;27.75;;
11665;SDS011;5889;51.350;6.708;2022-08-19T04:10:45;36.05;;;28.02;;
11665;SDS011;5889;51.350;6.708;2022-08-19T04:13:14;38.72;;;28.85;;
11665;SDS011;5889;51.350;6.708;2022-08-19T04:15:43;37.58;;;29.33;;
11665;SDS011;5889;51.350;6.708;2022-08-19T04:18:11;42.47;;;32.05;;
11665;SDS011;5889;51.350;6.708;2022-08-19T04:20:42;49.10;;;35.30;;
11665;SDS011;5889;51.350;6.708;2022-08-19T04:23:11;49.83;;;37.63;;
11665;SDS011;5889;51.350;6.708;2022-08-19T04:25:40;48.53;;;34.45;;
11665;SDS011;5889;51.350;6.708;2022-08-19T04:28:09;46.67;;;34.28;;
11665;SDS011;5889;51.350;6.708;2022-08-19T04:30:39;47.60;;;34.78;;
11665;SDS011;5889;51.350;6.708;2022-08-19T04:33:07;45.05;;;34.05;;
11665;SDS011;5889;51.350;6.708;2022-08-19T04:35:36;45.13;;;33.28;;
11665;SDS011;5889;51.350;6.708;2022-08-19T04:38:05;46.67;;;33.47;;
11665;SDS011;5889;51.350;6.708;2022-08-19T04:40:33;46.33;;;33.85;;
11665;SDS011;5889;51.350;6.708;2022-08-19T04:43:22;46.22;;;32.72;;
11665;SDS011;5889;51.350;6.708;2022-08-19T04:45:51;42.20;;;32.70;;
11665;SDS011;5889;51.350;6.708;2022-08-19T04:48:18;40.22;;;29.45;;
11665;SDS011;5889;51.350;6.708;2022-08-19T04:50:50;38.03;;;28.10;;
11665;SDS011;5889;51.350;6.708;2022-08-19T04:53:22;36.67;;;27.55;;
11665;SDS011;5889;51.350;6.708;2022-08-19T04:55:49;36.92;;;26.95;;
11665;SDS011;5889;51.350;6.708;2022-08-19T04:58:16;38.05;;;27.35;;
11665;SDS011;5889;51.350;6.708;2022-08-19T05:00:43;35.47;;;26.02;;
11665;SDS011;5889;51.350;6.708;2022-08-19T05:03:12;35.35;;;26.75;;
11665;SDS011;5889;51.350;6.708;2022-08-19T05:05:42;31.05;;;23.92;;
11665;SDS011;5889;51.350;6.708;2022-08-19T05:08:09;29.75;;;22.98;;
11665;SDS011;5889;51.350;6.708;2022-08-19T05:10:36;27.85;;;22.27;;
11665;SDS011;5889;51.350;6.708;2022-08-19T05:13:04;28.08;;;22.45;;
11665;SDS011;5889;51.350;6.708;2022-08-19T05:15:31;31.88;;;24.10;;
11665;SDS011;5889;51.350;6.708;2022-08-19T05:17:58;28.88;;;23.20;;
11665;SDS011;5889;51.350;6.708;2022-08-19T05:20:43;35.67;;;26.77;;
11665;SDS011;5889;51.350;6.708;2022-08-19T05:23:27;28.30;;;21.83;;
11665;SDS011;5889;51.350;6.708;2022-08-19T05:25:55;33.05;;;24.50;;
11665;SDS011;5889;51.350;6.708;2022-08-19T05:28:22;34.35;;;25.30;;
11665;SDS011;5889;51.350;6.708;2022-08-19T05:30:49;33.97;;;26.52;;
11665;SDS011;5889;51.350;6.708;2022-08-19T05:33:16;36.20;;;26.95;;
11665;SDS011;5889;51.350;6.708;2022-08-19T05:35:44;40.60;;;29.48;;
11665;SDS011;5889;51.350;6.708;2022-08-19T05:38:13;44.20;;;31.48;;
11665;SDS011;5889;51.350;6.708;2022-08-19T05:40:40;45.15;;;33.00;;
11665;SDS011;5889;51.350;6.708;2022-08-19T05:43:12;47.35;;;34.45;;
11665;SDS011;5889;51.350;6.708;2022-08-19T05:45:40;47.78;;;36.75;;
11665;SDS011;5889;51.350;6.708;2022-08-19T05:48:08;54.95;;;38.17;;
11665;SDS011;5889;51.350;6.708;2022-08-19T05:50:36;49.42;;;36.88;;
11665;SDS011;5889;51.350;6.708;2022-08-19T05:53:04;48.67;;;34.90;;
11665;SDS011;5889;51.350;6.708;2022-08-19T05:55:32;46.58;;;36.13;;
11665;SDS011;5889;51.350;6.708;2022-08-19T05:57:59;52.17;;;37.17;;
11665;SDS011;5889;51.350;6.708;2022-08-19T06:00:27;45.35;;;35.13;;
11665;SDS011;5889;51.350;6.708;2022-08-19T06:02:56;45.95;;;35.70;;
11665;SDS011;5889;51.350;6.708;2022-08-19T06:05:24;53.47;;;39.70;;
11665;SDS011;5889;51.350;6.708;2022-08-19T06:07:51;57.22;;;40.05;;
11665;SDS011;5889;51.350;6.708;2022-08-19T06:10:20;47.78;;;36.88;;
11665;SDS011;5889;51.350;6.708;2022-08-19T06:12:47;56.92;;;42.53;;
11665;SDS011;5889;51.350;6.708;2022-08-19T06:15:15;61.00;;;44.47;;
11665;SDS011;5889;51.350;6.708;2022-08-19T06:17:42;56.88;;;41.47;;
11665;SDS011;5889;51.350;6.708;2022-08-19T06:20:11;70.28;;;45.65;;
11665;SDS011;5889;51.350;6.708;2022-08-19T06:22:40;67.00;;;45.63;;
11665;SDS011;5889;51.350;6.708;2022-08-19T06:25:09;65.88;;;47.15;;
11665;SDS011;5889;51.350;6.708;2022-08-19T06:27:38;65.57;;;48.28;;
11665;SDS011;5889;51.350;6.708;2022-08-19T06:30:05;67.55;;;45.85;;
11665;SDS011;5889;51.350;6.708;2022-08-19T06:32:33;61.25;;;46.20;;
11665;SDS011;5889;51.350;6.708;2022-08-19T06:35:00;64.60;;;47.58;;
11665;SDS011;5889;51.350;6.708;2022-08-19T06:37:27;66.45;;;47.40;;
11665;SDS011;5889;51.350;6.708;2022-08-19T06:39:54;66.72;;;46.38;;
11665;SDS011;5889;51.350;6.708;2022-08-19T06:42:21;60.63;;;44.00;;
11665;SDS011;5889;51.350;6.708;2022-08-19T06:44:49;72.30;;;47.80;;
11665;SDS011;5889;51.350;6.708;2022-08-19T06:47:17;65.28;;;45.45;;
11665;SDS011;5889;51.350;6.708;2022-08-19T06:49:46;66.65;;;45.95;;
11665;SDS011;5889;51.350;6.708;2022-08-19T06:52:13;59.08;;;42.05;;
11665;SDS011;5889;51.350;6.708;2022-08-19T06:54:40;62.90;;;44.58;;
11665;SDS011;5889;51.350;6.708;2022-08-19T06:57:08;58.53;;;42.70;;
11665;SDS011;5889;51.350;6.708;2022-08-19T06:59:40;60.58;;;43.10;;
11665;SDS011;5889;51.350;6.708;2022-08-19T07:02:08;60.10;;;43.00;;
11665;SDS011;5889;51.350;6.708;2022-08-19T07:04:35;55.78;;;39.22;;
11665;SDS011;5889;51.350;6.708;2022-08-19T07:07:04;54.97;;;39.42;;
11665;SDS011;5889;51.350;6.708;2022-08-19T07:09:33;53.20;;;38.03;;
11665;SDS011;5889;51.350;6.708;2022-08-19T07:12:03;49.83;;;37.10;;
11665;SDS011;5889;51.350;6.708;2022-08-19T07:14:32;45.78;;;34.95;;
11665;SDS011;5889;51.350;6.708;2022-08-19T07:17:02;47.20;;;32.65;;
11665;SDS011;5889;51.350;6.708;2022-08-19T07:19:31;42.45;;;29.73;;
11665;SDS011;5889;51.350;6.708;2022-08-19T07:22:00;40.78;;;29.20;;
11665;SDS011;5889;51.350;6.708;2022-08-19T07:24:28;34.90;;;25.88;;
11665;SDS011;5889;51.350;6.708;2022-08-19T07:26:57;34.88;;;23.95;;
11665;SDS011;5889;51.350;6.708;2022-08-19T07:29:27;33.10;;;25.38;;
11665;SDS011;5889;51.350;6.708;2022-08-19T07:31:58;31.50;;;23.35;;
11665;SDS011;5889;51.350;6.708;2022-08-19T07:34:26;31.10;;;23.92;;
11665;SDS011;5889;51.350;6.708;2022-08-19T07:36:57;30.23;;;23.27;;
11665;SDS011;5889;51.350;6.708;2022-08-19T07:39:25;34.72;;;24.30;;
11665;SDS011;5889;51.350;6.708;2022-08-19T07:41:55;30.20;;;22.33;;
11665;SDS011;5889;51.350;6.708;2022-08-19T07:44:24;36.42;;;23.45;;
11665;SDS011;5889;51.350;6.708;2022-08-19T07:46:53;31.40;;;24.48;;
11665;SDS011;5889;51.350;6.708;2022-08-19T07:49:22;34.92;;;25.90;;
11665;SDS011;5889;51.350;6.708;2022-08-19T07:51:50;33.17;;;24.25;;
11665;SDS011;5889;51.350;6.708;2022-08-19T07:54:21;37.67;;;26.02;;
11665;SDS011;5889;51.350;6.708;2022-08-19T07:56:49;35.50;;;28.10;;
11665;SDS011;5889;51.350;6.708;2022-08-19T07:59:17;34.72;;;27.40;;
11665;SDS011;5889;51.350;6.708;2022-08-19T08:01:45;32.10;;;25.45;;
11665;SDS011;5889;51.350;6.708;2022-08-19T08:04:13;37.50;;;27.17;;
11665;SDS011;5889;51.350;6.708;2022-08-19T08:06:58;37.83;;;28.63;;
11665;SDS011;5889;51.350;6.708;2022-08-19T08:09:44;37.75;;;28.30;;
11665;SDS011;5889;51.350;6.708;2022-08-19T08:12:13;39.47;;;30.15;;
11665;SDS011;5889;51.350;6.708;2022-08-19T08:14:42;36.55;;;26.02;;
11665;SDS011;5889;51.350;6.708;2022-08-19T08:17:12;39.00;;;29.13;;
11665;SDS011;5889;51.350;6.708;2022-08-19T08:19:41;41.15;;;29.25;;
11665;SDS011;5889;51.350;6.708;2022-08-19T08:22:09;43.75;;;31.92;;
11665;SDS011;5889;51.350;6.708;2022-08-19T08:25:02;36.83;;;25.77;;
11665;SDS011;5889;51.350;6.708;2022-08-19T08:27:30;32.28;;;23.73;;
11665;SDS011;5889;51.350;6.708;2022-08-19T08:29:57;33.03;;;24.27;;
11665;SDS011;5889;51.350;6.708;2022-08-19T08:32:24;45.47;;;28.40;;
11665;SDS011;5889;51.350;6.708;2022-08-19T08:34:52;33.80;;;23.55;;
11665;SDS011;5889;51.350;6.708;2022-08-19T08:37:19;43.05;;;28.02;;
11665;SDS011;5889;51.350;6.708;2022-08-19T08:39:47;34.55;;;25.42;;
11665;SDS011;5889;51.350;6.708;2022-08-19T08:42:18;50.55;;;32.10;;
11665;SDS011;5889;51.350;6.708;2022-08-19T08:44:52;47.47;;;32.03;;
11665;SDS011;5889;51.350;6.708;2022-08-19T08:47:24;41.83;;;30.50;;
11665;SDS011;5889;51.350;6.708;2022-08-19T08:49:55;39.22;;;28.17;;
11665;SDS011;5889;51.350;6.708;2022-08-19T08:52:26;46.42;;;29.50;;
11665;SDS011;5889;51.350;6.708;2022-08-19T08:54:59;40.03;;;27.52;;
11665;SDS011;5889;51.350;6.708;2022-08-19T08:57:32;37.50;;;25.23;;
11665;SDS011;5889;51.350;6.708;2022-08-19T09:00:03;39.60;;;26.65;;
11665;SDS011;5889;51.350;6.708;2022-08-19T09:02:35;37.95;;;26.45;;
11665;SDS011;5889;51.350;6.708;2022-08-19T09:05:02;39.78;;;29.15;;
11665;SDS011;5889;51.350;6.708;2022-08-19T09:07:33;47.10;;;30.67;;
11665;SDS011;5889;51.350;6.708;2022-08-19T09:10:10;42.78;;;30.27;;
11665;SDS011;5889;51.350;6.708;2022-08-19T09:12:47;54.15;;;31.45;;
11665;SDS011;5889;51.350;6.708;2022-08-19T09:15:25;44.78;;;30.85;;
11665;SDS011;5889;51.350;6.708;2022-08-19T09:17:58;42.42;;;30.88;;
11665;SDS011;5889;51.350;6.708;2022-08-19T09:20:28;43.08;;;31.70;;
11665;SDS011;5889;51.350;6.708;2022-08-19T09:22:56;41.38;;;29.08;;
11665;SDS011;5889;51.350;6.708;2022-08-19T09:25:23;35.33;;;25.27;;
11665;SDS011;5889;51.350;6.708;2022-08-19T09:27:52;39.22;;;27.67;;
11665;SDS011;5889;51.350;6.708;2022-08-19T09:30:22;38.22;;;27.38;;
11665;SDS011;5889;51.350;6.708;2022-08-19T09:32:51;38.95;;;27.33;;
11665;SDS011;5889;51.350;6.708;2022-08-19T09:35:20;32.35;;;24.23;;
11665;SDS011;5889;51.350;6.708;2022-08-19T09:37:48;29.08;;;24.08;;
11665;SDS011;5889;51.350;6.708;2022-08-19T09:40:16;35.92;;;21.75;;
11665;SDS011;5889;51.350;6.708;2022-08-19T09:42:43;29.30;;;22.15;;
11665;SDS011;5889;51.350;6.708;2022-08-19T09:45:13;32.22;;;24.77;;
11665;SDS011;5889;51.350;6.708;2022-08-19T09:47:40;27.45;;;21.17;;
11665;SDS011;5889;51.350;6.708;2022-08-19T09:50:09;30.92;;;24.25;;
11665;SDS011;5889;51.350;6.708;2022-08-19T09:52:37;26.63;;;22.00;;
11665;SDS011;5889;51.350;6.708;2022-08-19T09:55:05;29.58;;;21.23;;
11665;SDS011;5889;51.350;6.708;2022-08-19T09:57:33;31.58;;;21.95;;
11665;SDS011;5889;51.350;6.708;2022-08-19T10:00:01;29.52;;;20.65;;
11665;SDS011;5889;51.350;6.708;2022-08-19T10:02:30;24.48;;;20.00;;
11665;SDS011;5889;51.350;6.708;2022-08-19T10:04:57;23.83;;;19.25;;
11665;SDS011;5889;51.350;6.708;2022-08-19T10:07:41;26.30;;;18.60;;
11665;SDS011;5889;51.350;6.708;2022-08-19T10:10:08;26.73;;;18.67;;
11665;SDS011;5889;51.350;6.708;2022-08-19T10:12:36;30.42;;;18.52;;
11665;SDS011;5889;51.350;6.708;2022-08-19T10:15:04;23.80;;;18.50;;
11665;SDS011;5889;51.350;6.708;2022-08-19T10:17:33;23.08;;;17.80;;
11665;SDS011;5889;51.350;6.708;2022-08-19T10:20:00;20.10;;;17.15;;
11665;SDS011;5889;51.350;6.708;2022-08-19T10:22:29;28.50;;;19.67;;
11665;SDS011;5889;51.350;6.708;2022-08-19T10:24:56;22.95;;;18.98;;
11665;SDS011;5889;51.350;6.708;2022-08-19T10:27:23;25.08;;;17.77;;
11665;SDS011;5889;51.350;6.708;2022-08-19T10:29:50;23.63;;;18.45;;
11665;SDS011;5889;51.350;6.708;2022-08-19T10:32:16;23.67;;;15.80;;
11665;SDS011;5889;51.350;6.708;2022-08-19T10:34:45;20.15;;;15.50;;
11665;SDS011;5889;51.350;6.708;2022-08-19T10:37:12;20.50;;;15.70;;
11665;SDS011;5889;51.350;6.708;2022-08-19T10:39:38;21.15;;;16.05;;
11665;SDS011;5889;51.350;6.708;2022-08-19T10:42:05;23.60;;;17.98;;
11665;SDS011;5889;51.350;6.708;2022-08-19T10:44:35;19.08;;;15.55;;
11665;SDS011;5889;51.350;6.708;2022-08-19T10:47:03;22.60;;;15.60;;
11665;SDS011;5889;51.350;6.708;2022-08-19T10:49:30;18.33;;;14.65;;
11665;SDS011;5889;51.350;6.708;2022-08-19T10:52:19;17.80;;;14.27;;
11665;SDS011;5889;51.350;6.708;2022-08-19T10:55:00;16.00;;;13.02;;
11665;SDS011;5889;51.350;6.708;2022-08-19T10:57:45;15.07;;;11.95;;
11665;SDS011;5889;51.350;6.708;2022-08-19T11:00:13;18.75;;;13.65;;
11665;SDS011;5889;51.350;6.708;2022-08-19T11:02:40;14.50;;;12.18;;
11665;SDS011;5889;51.350;6.708;2022-08-19T11:05:08;16.85;;;12.15;;
11665;SDS011;5889;51.350;6.708;2022-08-19T11:07:38;16.83;;;12.82;;
11665;SDS011;5889;51.350;6.708;2022-08-19T11:10:05;13.65;;;11.38;;
11665;SDS011;5889;51.350;6.708;2022-08-19T11:12:33;12.75;;;11.07;;
11665;SDS011;5889;51.350;6.708;2022-08-19T11:14:59;13.65;;;10.68;;
11665;SDS011;5889;51.350;6.708;2022-08-19T11:17:26;17.58;;;12.23;;
11665;SDS011;5889;51.350;6.708;2022-08-19T11:19:56;16.95;;;11.50;;
11665;SDS011;5889;51.350;6.708;2022-08-19T11:22:23;15.98;;;10.52;;
11665;SDS011;5889;51.350;6.708;2022-08-19T11:24:51;11.73;;;9.73;;
11665;SDS011;5889;51.350;6.708;2022-08-19T11:27:19;10.98;;;8.35;;
11665;SDS011;5889;51.350;6.708;2022-08-19T11:29:46;13.48;;;9.18;;
11665;SDS011;5889;51.350;6.708;2022-08-19T11:32:13;15.02;;;11.77;;
11665;SDS011;5889;51.350;6.708;2022-08-19T11:34:40;12.35;;;10.07;;
11665;SDS011;5889;51.350;6.708;2022-08-19T11:37:07;10.55;;;9.32;;
11665;SDS011;5889;51.350;6.708;2022-08-19T11:39:34;16.90;;;10.30;;
11665;SDS011;5889;51.350;6.708;2022-08-19T11:42:03;11.68;;;8.65;;
11665;SDS011;5889;51.350;6.708;2022-08-19T11:44:52;16.98;;;10.65;;
11665;SDS011;5889;51.350;6.708;2022-08-19T11:47:19;11.98;;;10.40;;
11665;SDS011;5889;51.350;6.708;2022-08-19T11:49:47;11.48;;;7.90;;
11665;SDS011;5889;51.350;6.708;2022-08-19T11:52:13;12.48;;;10.50;;
11665;SDS011;5889;51.350;6.708;2022-08-19T11:54:40;13.20;;;9.10;;
11665;SDS011;5889;51.350;6.708;2022-08-19T11:57:09;11.05;;;8.00;;
11665;SDS011;5889;51.350;6.708;2022-08-19T11:59:35;10.68;;;8.73;;
11665;SDS011;5889;51.350;6.708;2022-08-19T12:02:02;10.18;;;7.68;;
11665;SDS011;5889;51.350;6.708;2022-08-19T12:04:29;10.82;;;7.32;;
11665;SDS011;5889;51.350;6.708;2022-08-19T12:06:56;11.00;;;9.23;;
11665;SDS011;5889;51.350;6.708;2022-08-19T12:09:23;12.63;;;10.30;;
11665;SDS011;5889;51.350;6.708;2022-08-19T12:11:50;9.77;;;8.07;;
11665;SDS011;5889;51.350;6.708;2022-08-19T12:14:18;12.45;;;8.43;;
11665;SDS011;5889;51.350;6.708;2022-08-19T12:16:46;8.63;;;6.47;;
11665;SDS011;5889;51.350;6.708;2022-08-19T12:19:13;11.40;;;7.20;;
11665;SDS011;5889;51.350;6.708;2022-08-19T12:21:40;8.23;;;7.03;;
11665;SDS011;5889;51.350;6.708;2022-08-19T12:24:07;10.15;;;6.43;;
11665;SDS011;5889;51.350;6.708;2022-08-19T12:26:34;7.95;;;5.80;;
11665;SDS011;5889;51.350;6.708;2022-08-19T12:29:02;7.47;;;5.65;;
11665;SDS011;5889;51.350;6.708;2022-08-19T12:31:30;9.43;;;5.95;;
11665;SDS011;5889;51.350;6.708;2022-08-19T12:33:57;9.20;;;7.13;;
11665;SDS011;5889;51.350;6.708;2022-08-19T12:36:27;8.25;;;6.90;;
11665;SDS011;5889;51.350;6.708;2022-08-19T12:38:55;9.40;;;6.78;;
11665;SDS011;5889;51.350;6.708;2022-08-19T12:41:24;9.30;;;7.20;;
11665;SDS011;5889;51.350;6.708;2022-08-19T12:43:51;11.18;;;7.97;;
11665;SDS011;5889;51.350;6.708;2022-08-19T12:46:18;10.25;;;7.40;;
11665;SDS011;5889;51.350;6.708;2022-08-19T12:48:47;9.23;;;6.50;;
11665;SDS011;5889;51.350;6.708;2022-08-19T12:51:14;12.18;;;6.22;;
11665;SDS011;5889;51.350;6.708;2022-08-19T12:53:44;7.43;;;4.57;;
11665;SDS011;5889;51.350;6.708;2022-08-19T12:56:12;6.57;;;5.05;;
11665;SDS011;5889;51.350;6.708;2022-08-19T12:58:40;9.68;;;5.28;;
11665;SDS011;5889;51.350;6.708;2022-08-19T13:01:08;5.82;;;4.10;;
11665;SDS011;5889;51.350;6.708;2022-08-19T13:03:36;5.95;;;3.75;;
11665;SDS011;5889;51.350;6.708;2022-08-19T13:06:05;5.43;;;4.25;;
11665;SDS011;5889;51.350;6.708;2022-08-19T13:08:32;8.77;;;6.53;;
11665;SDS011;5889;51.350;6.708;2022-08-19T13:11:06;7.22;;;5.57;;
11665;SDS011;5889;51.350;6.708;2022-08-19T13:13:36;8.05;;;4.53;;
11665;SDS011;5889;51.350;6.708;2022-08-19T13:16:06;5.75;;;4.72;;
11665;SDS011;5889;51.350;6.708;2022-08-19T13:18:34;6.60;;;4.47;;
11665;SDS011;5889;51.350;6.708;2022-08-19T13:21:02;7.13;;;5.00;;
11665;SDS011;5889;51.350;6.708;2022-08-19T13:23:31;6.75;;;4.47;;
11665;SDS011;5889;51.350;6.708;2022-08-19T13:25:59;7.65;;;5.00;;
11665;SDS011;5889;51.350;6.708;2022-08-19T13:28:27;10.23;;;4.93;;
11665;SDS011;5889;51.350;6.708;2022-08-19T13:31:15;5.85;;;4.47;;
11665;SDS011;5889;51.350;6.708;2022-08-19T13:34:00;7.07;;;5.18;;
11665;SDS011;5889;51.350;6.708;2022-08-19T13:36:28;6.18;;;5.20;;
11665;SDS011;5889;51.350;6.708;2022-08-19T13:38:56;9.88;;;6.10;;
11665;SDS011;5889;51.350;6.708;2022-08-19T13:41:23;15.93;;;5.50;;
11665;SDS011;5889;51.350;6.708;2022-08-19T13:43:51;7.72;;;5.20;;
11665;SDS011;5889;51.350;6.708;2022-08-19T13:46:19;6.35;;;4.85;;
11665;SDS011;5889;51.350;6.708;2022-08-19T13:48:46;13.32;;;5.72;;
11665;SDS011;5889;51.350;6.708;2022-08-19T13:51:13;6.72;;;4.95;;
11665;SDS011;5889;51.350;6.708;2022-08-19T13:53:41;5.85;;;5.25;;
11665;SDS011;5889;51.350;6.708;2022-08-19T13:56:12;7.03;;;5.45;;
11665;SDS011;5889;51.350;6.708;2022-08-19T13:58:41;10.10;;;5.88;;
11665;SDS011;5889;51.350;6.708;2022-08-19T14:01:08;6.90;;;5.63;;
11665;SDS011;5889;51.350;6.708;2022-08-19T14:03:36;6.88;;;6.07;;
11665;SDS011;5889;51.350;6.708;2022-08-19T14:06:03;7.28;;;5.25;;
11665;SDS011;5889;51.350;6.708;2022-08-19T14:08:30;6.93;;;5.28;;
11665;SDS011;5889;51.350;6.708;2022-08-19T14:10:57;9.50;;;6.13;;
11665;SDS011;5889;51.350;6.708;2022-08-19T14:13:26;5.63;;;5.03;;
11665;SDS011;5889;51.350;6.708;2022-08-19T14:15:53;7.90;;;6.90;;
11665;SDS011;5889;51.350;6.708;2022-08-19T14:18:20;8.05;;;5.63;;
11665;SDS011;5889;51.350;6.708;2022-08-19T14:20:47;7.43;;;5.97;;
11665;SDS011;5889;51.350;6.708;2022-08-19T14:23:14;8.10;;;5.45;;
11665;SDS011;5889;51.350;6.708;2022-08-19T14:25:41;10.23;;;5.80;;
11665;SDS011;5889;51.350;6.708;2022-08-19T14:28:09;9.45;;;5.50;;
11665;SDS011;5889;51.350;6.708;2022-08-19T14:30:37;11.32;;;5.60;;
11665;SDS011;5889;51.350;6.708;2022-08-19T14:33:05;9.55;;;5.63;;
11665;SDS011;5889;51.350;6.708;2022-08-19T14:35:33;6.45;;;4.80;;
11665;SDS011;5889;51.350;6.708;2022-08-19T14:38:00;5.15;;;3.88;;
11665;SDS011;5889;51.350;6.708;2022-08-19T14:40:28;5.28;;;4.03;;
11665;SDS011;5889;51.350;6.708;2022-08-19T14:42:57;6.18;;;4.18;;
11665;SDS011;5889;51.350;6.708;2022-08-19T14:45:29;5.30;;;4.18;;
11665;SDS011;5889;51.350;6.708;2022-08-19T14:47:58;7.53;;;4.28;;